sensor_id;sensor_type;location;lat;lon;timestamp;pressure;altitude;pressure_sealevel;temperature;humidity
5883;BME280;2967;51.488;6.618;2023-11-19T00:00:46;100618.91;;;13.44;100.00
5883;BME280;2967;51.488;6.618;2023-11-19T00:05:51;100649.91;;;13.55;100.00
5883;BME280;2967;51.488;6.618;2023-11-19T00:10:55;100556.25;;;13.09;100.00
5883;BME280;2967;51.488;6.618;2023-11-19T00:15:58;100630.72;;;13.73;100.00
5883;BME280;2967;51.488;6.618;2023-11-19T00:21:01;100637.47;;;13.77;100.00
5883;BME280;2967;51.488;6.618;2023-11-19T00:26:06;100627.66;;;13.89;100.00
5883;BME280;2967;51.488;6.618;2023-11-19T00:31:11;100632.97;;;14.00;100.00
5883;BME280;2967;51.488;6.618;2023-11-19T00:36:14;100621.59;;;13.98;100.00
5883;BME280;2967;51.488;6.618;2023-11-19T00:41:19;100609.25;;;13.97;100.00
5883;BME280;2967;51.488;6.618;2023-11-19T00:46:22;100610.94;;;14.09;100.00
5883;BME280;2967;51.488;6.618;2023-11-19T00:51:26;100608.00;;;14.23;100.00
5883;BME280;2967;51.488;6.618;2023-11-19T00:56:30;100592.81;;;14.03;100.00
5883;BME280;2967;51.488;6.618;2023-11-19T01:01:32;100595.78;;;14.20;100.00
5883;BME280;2967;51.488;6.618;2023-11-19T01:06:35;100599.91;;;14.13;100.00
5883;BME280;2967;51.488;6.618;2023-11-19T01:11:51;100596.00;;;13.86;100.00
5883;BME280;2967;51.488;6.618;2023-11-19T01:16:54;100601.66;;;14.03;100.00
5883;BME280;2967;51.488;6.618;2023-11-19T01:21:57;100588.47;;;14.02;100.00
5883;BME280;2967;51.488;6.618;2023-11-19T01:27:01;100608.66;;;14.04;100.00
5883;BME280;2967;51.488;6.618;2023-11-19T01:32:05;100620.38;;;14.02;100.00
5883;BME280;2967;51.488;6.618;2023-11-19T01:37:07;100608.56;;;13.84;100.00
5883;BME280;2967;51.488;6.618;2023-11-19T01:42:12;100595.25;;;13.95;100.00
5883;BME280;2967;51.488;6.618;2023-11-19T01:47:15;100600.34;;;13.98;100.00
5883;BME280;2967;51.488;6.618;2023-11-19T01:52:18;100599.34;;;13.99;100.00
5883;BME280;2967;51.488;6.618;2023-11-19T01:57:24;100589.06;;;14.05;100.00
5883;BME280;2967;51.488;6.618;2023-11-19T02:02:28;100573.47;;;14.01;100.00
5883;BME280;2967;51.488;6.618;2023-11-19T02:07:32;100553.25;;;14.09;100.00
5883;BME280;2967;51.488;6.618;2023-11-19T02:12:37;100552.75;;;14.15;100.00
5883;BME280;2967;51.488;6.618;2023-11-19T02:17:40;100556.03;;;14.39;100.00
5883;BME280;2967;51.488;6.618;2023-11-19T02:22:43;100559.22;;;14.02;100.00
5883;BME280;2967;51.488;6.618;2023-11-19T02:27:52;100542.00;;;14.06;100.00
5883;BME280;2967;51.488;6.618;2023-11-19T02:32:58;100507.16;;;13.88;100.00
5883;BME280;2967;51.488;6.618;2023-11-19T02:38:05;100535.66;;;13.97;100.00
5883;BME280;2967;51.488;6.618;2023-11-19T02:43:12;100542.84;;;14.17;100.00
5883;BME280;2967;51.488;6.618;2023-11-19T02:48:15;100532.53;;;14.24;100.00
5883;BME280;2967;51.488;6.618;2023-11-19T02:53:19;100474.00;;;13.92;100.00
5883;BME280;2967;51.488;6.618;2023-11-19T02:58:24;100510.28;;;14.25;100.00
5883;BME280;2967;51.488;6.618;2023-11-19T03:03:29;100499.47;;;14.06;100.00
5883;BME280;2967;51.488;6.618;2023-11-19T03:08:41;100457.44;;;14.00;100.00
5883;BME280;2967;51.488;6.618;2023-11-19T03:13:45;100529.31;;;14.41;100.00
5883;BME280;2967;51.488;6.618;2023-11-19T03:18:48;100474.81;;;14.04;100.00
5883;BME280;2967;51.488;6.618;2023-11-19T03:23:51;100452.69;;;13.83;100.00
5883;BME280;2967;51.488;6.618;2023-11-19T03:34:48;100504.00;;;14.15;100.00
5883;BME280;2967;51.488;6.618;2023-11-19T03:39:51;100530.88;;;14.12;100.00
5883;BME280;2967;51.488;6.618;2023-11-19T03:44:54;100542.88;;;14.06;100.00
5883;BME280;2967;51.488;6.618;2023-11-19T03:49:58;100462.56;;;13.60;100.00
5883;BME280;2967;51.488;6.618;2023-11-19T03:55:01;100524.38;;;14.05;100.00
5883;BME280;2967;51.488;6.618;2023-11-19T04:00:05;100532.28;;;14.16;100.00
5883;BME280;2967;51.488;6.618;2023-11-19T04:05:16;100525.38;;;13.93;100.00
5883;BME280;2967;51.488;6.618;2023-11-19T04:10:21;100474.53;;;13.86;100.00
5883;BME280;2967;51.488;6.618;2023-11-19T04:15:45;100543.25;;;14.02;100.00
5883;BME280;2967;51.488;6.618;2023-11-19T04:21:10;100540.28;;;14.16;100.00
5883;BME280;2967;51.488;6.618;2023-11-19T04:26:33;100546.66;;;13.93;100.00
5883;BME280;2967;51.488;6.618;2023-11-19T04:31:56;100542.47;;;14.22;100.00
5883;BME280;2967;51.488;6.618;2023-11-19T04:37:20;100550.47;;;14.11;100.00
5883;BME280;2967;51.488;6.618;2023-11-19T04:42:42;100466.41;;;13.67;100.00
5883;BME280;2967;51.488;6.618;2023-11-19T04:48:05;100360.47;;;13.00;100.00
5883;BME280;2967;51.488;6.618;2023-11-19T04:53:29;100522.63;;;14.15;100.00
5883;BME280;2967;51.488;6.618;2023-11-19T04:58:52;100494.13;;;13.85;100.00
5883;BME280;2967;51.488;6.618;2023-11-19T05:04:15;100471.72;;;13.99;100.00
5883;BME280;2967;51.488;6.618;2023-11-19T05:09:40;100552.59;;;14.28;100.00
5883;BME280;2967;51.488;6.618;2023-11-19T05:14:44;100555.06;;;14.20;100.00
5883;BME280;2967;51.488;6.618;2023-11-19T05:19:51;100548.19;;;14.38;100.00
5883;BME280;2967;51.488;6.618;2023-11-19T05:24:55;100441.13;;;13.73;100.00
5883;BME280;2967;51.488;6.618;2023-11-19T05:29:59;100574.66;;;14.39;100.00
5883;BME280;2967;51.488;6.618;2023-11-19T05:35:02;100503.06;;;13.84;100.00
5883;BME280;2967;51.488;6.618;2023-11-19T05:40:08;100568.38;;;14.20;100.00
5883;BME280;2967;51.488;6.618;2023-11-19T05:45:16;100570.66;;;14.24;100.00
5883;BME280;2967;51.488;6.618;2023-11-19T05:50:19;100578.03;;;14.21;100.00
5883;BME280;2967;51.488;6.618;2023-11-19T05:55:23;100533.00;;;13.97;100.00
5883;BME280;2967;51.488;6.618;2023-11-19T06:00:28;100505.19;;;13.70;100.00
5883;BME280;2967;51.488;6.618;2023-11-19T06:05:32;100483.75;;;13.40;100.00
5883;BME280;2967;51.488;6.618;2023-11-19T06:10:38;100576.03;;;14.34;100.00
5883;BME280;2967;51.488;6.618;2023-11-19T06:15:41;100563.19;;;14.07;100.00
5883;BME280;2967;51.488;6.618;2023-11-19T06:20:44;100564.59;;;13.80;100.00
5883;BME280;2967;51.488;6.618;2023-11-19T06:25:47;100566.69;;;13.97;100.00
5883;BME280;2967;51.488;6.618;2023-11-19T06:30:50;100583.16;;;14.02;100.00
5883;BME280;2967;51.488;6.618;2023-11-19T06:35:53;100489.97;;;13.61;100.00
5883;BME280;2967;51.488;6.618;2023-11-19T06:40:58;100577.53;;;14.16;100.00
5883;BME280;2967;51.488;6.618;2023-11-19T06:46:01;100486.50;;;13.49;100.00
5883;BME280;2967;51.488;6.618;2023-11-19T06:51:07;100582.84;;;14.16;100.00
5883;BME280;2967;51.488;6.618;2023-11-19T06:56:20;100585.16;;;14.09;100.00
5883;BME280;2967;51.488;6.618;2023-11-19T07:01:23;100512.69;;;13.54;100.00
5883;BME280;2967;51.488;6.618;2023-11-19T07:06:26;100544.31;;;13.79;100.00
5883;BME280;2967;51.488;6.618;2023-11-19T07:11:45;100588.94;;;13.96;100.00
5883;BME280;2967;51.488;6.618;2023-11-19T07:16:48;100562.72;;;13.91;100.00
5883;BME280;2967;51.488;6.618;2023-11-19T07:21:51;100571.72;;;13.79;100.00
5883;BME280;2967;51.488;6.618;2023-11-19T07:26:57;100586.69;;;13.80;100.00
5883;BME280;2967;51.488;6.618;2023-11-19T07:31:59;100541.34;;;13.39;100.00
5883;BME280;2967;51.488;6.618;2023-11-19T07:37:04;100645.03;;;14.04;100.00
5883;BME280;2967;51.488;6.618;2023-11-19T07:42:08;100643.88;;;13.75;100.00
5883;BME280;2967;51.488;6.618;2023-11-19T07:47:11;100662.63;;;13.73;100.00
5883;BME280;2967;51.488;6.618;2023-11-19T07:52:15;100412.25;;;12.51;100.00
5883;BME280;2967;51.488;6.618;2023-11-19T07:57:22;100516.97;;;12.91;100.00
5883;BME280;2967;51.488;6.618;2023-11-19T08:02:25;100685.91;;;14.03;100.00
5883;BME280;2967;51.488;6.618;2023-11-19T08:07:33;100698.50;;;13.79;100.00
5883;BME280;2967;51.488;6.618;2023-11-19T08:12:40;100669.75;;;13.62;100.00
5883;BME280;2967;51.488;6.618;2023-11-19T08:17:45;100673.59;;;13.80;100.00
5883;BME280;2967;51.488;6.618;2023-11-19T08:22:49;100701.50;;;13.85;100.00
5883;BME280;2967;51.488;6.618;2023-11-19T08:27:55;100643.63;;;13.56;100.00
5883;BME280;2967;51.488;6.618;2023-11-19T08:33:12;100700.91;;;13.82;100.00
5883;BME280;2967;51.488;6.618;2023-11-19T08:38:17;100523.06;;;13.04;100.00
5883;BME280;2967;51.488;6.618;2023-11-19T08:43:36;100687.59;;;14.04;100.00
5883;BME280;2967;51.488;6.618;2023-11-19T08:49:05;100685.41;;;14.09;100.00
5883;BME280;2967;51.488;6.618;2023-11-19T08:54:12;100699.75;;;14.39;100.00
5883;BME280;2967;51.488;6.618;2023-11-19T08:59:18;100632.13;;;13.88;100.00
5883;BME280;2967;51.488;6.618;2023-11-19T09:04:28;100512.03;;;13.30;100.00
5883;BME280;2967;51.488;6.618;2023-11-19T09:09:39;100644.63;;;14.30;100.00
5883;BME280;2967;51.488;6.618;2023-11-19T09:14:44;100699.56;;;14.63;100.00
5883;BME280;2967;51.488;6.618;2023-11-19T09:19:50;100697.97;;;14.92;100.00
5883;BME280;2967;51.488;6.618;2023-11-19T09:24:55;100474.03;;;13.61;100.00
5883;BME280;2967;51.488;6.618;2023-11-19T09:30:11;100597.66;;;14.40;100.00
5883;BME280;2967;51.488;6.618;2023-11-19T09:35:15;100560.72;;;13.84;100.00
5883;BME280;2967;51.488;6.618;2023-11-19T09:40:20;100669.78;;;14.69;100.00
5883;BME280;2967;51.488;6.618;2023-11-19T09:45:27;100297.13;;;12.31;100.00
5883;BME280;2967;51.488;6.618;2023-11-19T09:50:31;100682.50;;;14.65;100.00
5883;BME280;2967;51.488;6.618;2023-11-19T09:55:34;100647.81;;;14.45;100.00
5883;BME280;2967;51.488;6.618;2023-11-19T10:00:43;100700.31;;;15.06;100.00
5883;BME280;2967;51.488;6.618;2023-11-19T10:05:57;100620.41;;;14.65;100.00
5883;BME280;2967;51.488;6.618;2023-11-19T10:11:02;100663.25;;;14.82;100.00
5883;BME280;2967;51.488;6.618;2023-11-19T10:16:09;100662.50;;;15.12;100.00
5883;BME280;2967;51.488;6.618;2023-11-19T10:21:17;100605.69;;;14.29;100.00
5883;BME280;2967;51.488;6.618;2023-11-19T10:26:22;100653.72;;;14.80;100.00
5883;BME280;2967;51.488;6.618;2023-11-19T10:31:29;100689.34;;;15.20;100.00
5883;BME280;2967;51.488;6.618;2023-11-19T10:36:41;100687.34;;;15.33;100.00
5883;BME280;2967;51.488;6.618;2023-11-19T10:42:14;100676.19;;;14.87;100.00
5883;BME280;2967;51.488;6.618;2023-11-19T10:47:22;100680.97;;;15.24;100.00
5883;BME280;2967;51.488;6.618;2023-11-19T10:52:29;100673.50;;;15.39;100.00
5883;BME280;2967;51.488;6.618;2023-11-19T10:57:36;100668.59;;;15.44;100.00
5883;BME280;2967;51.488;6.618;2023-11-19T11:02:43;100658.19;;;15.20;100.00
5883;BME280;2967;51.488;6.618;2023-11-19T11:08:07;100562.47;;;14.57;100.00
5883;BME280;2967;51.488;6.618;2023-11-19T11:13:14;100454.94;;;14.08;100.00
5883;BME280;2967;51.488;6.618;2023-11-19T11:18:29;100564.69;;;14.93;100.00
5883;BME280;2967;51.488;6.618;2023-11-19T11:23:42;100626.53;;;15.27;100.00
5883;BME280;2967;51.488;6.618;2023-11-19T11:28:52;100657.41;;;15.29;100.00
5883;BME280;2967;51.488;6.618;2023-11-19T11:34:13;100654.16;;;15.46;100.00
5883;BME280;2967;51.488;6.618;2023-11-19T11:39:24;100641.50;;;15.39;100.00
5883;BME280;2967;51.488;6.618;2023-11-19T11:45:00;100643.13;;;15.30;100.00
5883;BME280;2967;51.488;6.618;2023-11-19T11:50:09;100566.13;;;15.07;100.00
5883;BME280;2967;51.488;6.618;2023-11-19T11:55:15;100636.78;;;15.52;100.00
5883;BME280;2967;51.488;6.618;2023-11-19T12:00:21;100637.94;;;15.59;100.00
5883;BME280;2967;51.488;6.618;2023-11-19T12:05:25;100629.78;;;15.51;100.00
5883;BME280;2967;51.488;6.618;2023-11-19T12:10:30;100505.56;;;14.49;100.00
5883;BME280;2967;51.488;6.618;2023-11-19T12:16:11;100616.88;;;15.56;100.00
5883;BME280;2967;51.488;6.618;2023-11-19T12:21:27;100535.31;;;15.14;100.00
5883;BME280;2967;51.488;6.618;2023-11-19T12:26:35;100528.31;;;14.83;100.00
5883;BME280;2967;51.488;6.618;2023-11-19T12:31:54;100558.66;;;14.71;100.00
5883;BME280;2967;51.488;6.618;2023-11-19T12:37:15;100629.81;;;15.10;100.00
5883;BME280;2967;51.488;6.618;2023-11-19T12:42:18;100554.53;;;14.67;100.00
5883;BME280;2967;51.488;6.618;2023-11-19T12:47:23;100606.63;;;15.01;100.00
5883;BME280;2967;51.488;6.618;2023-11-19T12:52:27;100574.47;;;14.93;100.00
5883;BME280;2967;51.488;6.618;2023-11-19T12:57:42;100611.81;;;15.02;100.00
5883;BME280;2967;51.488;6.618;2023-11-19T13:02:48;100388.72;;;13.43;100.00
5883;BME280;2967;51.488;6.618;2023-11-19T13:07:57;100539.63;;;14.55;100.00
5883;BME280;2967;51.488;6.618;2023-11-19T13:13:04;100568.59;;;14.69;100.00
5883;BME280;2967;51.488;6.618;2023-11-19T13:18:09;100615.75;;;15.08;100.00
5883;BME280;2967;51.488;6.618;2023-11-19T13:23:12;100496.22;;;14.02;100.00
5883;BME280;2967;51.488;6.618;2023-11-19T13:28:20;100543.97;;;14.35;100.00
5883;BME280;2967;51.488;6.618;2023-11-19T13:33:25;100585.03;;;14.53;100.00
5883;BME280;2967;51.488;6.618;2023-11-19T13:38:28;100588.91;;;14.70;100.00
5883;BME280;2967;51.488;6.618;2023-11-19T13:43:32;100509.69;;;14.21;100.00
5883;BME280;2967;51.488;6.618;2023-11-19T13:48:36;100572.78;;;14.71;100.00
5883;BME280;2967;51.488;6.618;2023-11-19T13:53:40;100444.59;;;13.84;100.00
5883;BME280;2967;51.488;6.618;2023-11-19T13:59:03;100587.25;;;14.58;100.00
5883;BME280;2967;51.488;6.618;2023-11-19T14:04:58;100615.28;;;14.73;100.00
5883;BME280;2967;51.488;6.618;2023-11-19T14:10:02;100554.00;;;14.63;100.00
5883;BME280;2967;51.488;6.618;2023-11-19T14:15:09;100561.47;;;13.75;100.00
5883;BME280;2967;51.488;6.618;2023-11-19T14:20:32;100603.22;;;14.37;100.00
5883;BME280;2967;51.488;6.618;2023-11-19T14:25:35;100599.22;;;14.43;100.00
5883;BME280;2967;51.488;6.618;2023-11-19T14:30:38;100568.53;;;13.96;100.00
5883;BME280;2967;51.488;6.618;2023-11-19T14:36:04;100464.34;;;13.18;100.00
5883;BME280;2967;51.488;6.618;2023-11-19T14:41:23;100464.22;;;12.86;100.00
5883;BME280;2967;51.488;6.618;2023-11-19T14:47:00;100588.34;;;13.92;100.00
5883;BME280;2967;51.488;6.618;2023-11-19T14:52:10;100582.50;;;13.78;100.00
5883;BME280;2967;51.488;6.618;2023-11-19T14:57:16;100417.31;;;12.76;100.00
5883;BME280;2967;51.488;6.618;2023-11-19T15:02:19;100401.84;;;12.81;100.00
5883;BME280;2967;51.488;6.618;2023-11-19T15:07:26;100550.13;;;13.62;100.00
5883;BME280;2967;51.488;6.618;2023-11-19T15:12:29;100556.88;;;13.66;100.00
5883;BME280;2967;51.488;6.618;2023-11-19T15:17:33;100514.94;;;13.38;100.00
5883;BME280;2967;51.488;6.618;2023-11-19T15:22:38;100579.66;;;13.48;100.00
5883;BME280;2967;51.488;6.618;2023-11-19T15:27:43;100484.13;;;13.35;100.00
5883;BME280;2967;51.488;6.618;2023-11-19T15:32:46;100560.06;;;13.91;100.00
5883;BME280;2967;51.488;6.618;2023-11-19T15:37:50;100579.59;;;13.70;100.00
5883;BME280;2967;51.488;6.618;2023-11-19T15:42:53;100571.41;;;13.62;100.00
5883;BME280;2967;51.488;6.618;2023-11-19T15:47:59;100575.41;;;13.56;100.00
5883;BME280;2967;51.488;6.618;2023-11-19T15:53:04;100317.22;;;11.79;100.00
5883;BME280;2967;51.488;6.618;2023-11-19T15:58:08;100498.19;;;12.94;100.00
5883;BME280;2967;51.488;6.618;2023-11-19T16:03:15;100308.47;;;11.89;100.00
5883;BME280;2967;51.488;6.618;2023-11-19T16:08:29;100273.59;;;11.72;100.00
5883;BME280;2967;51.488;6.618;2023-11-19T16:13:54;100539.34;;;13.21;100.00
5883;BME280;2967;51.488;6.618;2023-11-19T16:18:57;100321.56;;;12.02;100.00
5883;BME280;2967;51.488;6.618;2023-11-19T16:24:14;100268.91;;;11.86;100.00
5883;BME280;2967;51.488;6.618;2023-11-19T16:29:23;100505.88;;;13.18;100.00
5883;BME280;2967;51.488;6.618;2023-11-19T16:34:43;100576.25;;;13.46;100.00
5883;BME280;2967;51.488;6.618;2023-11-19T16:41:18;100396.91;;;12.10;100.00
5883;BME280;2967;51.488;6.618;2023-11-19T16:46:22;100593.41;;;13.09;100.00
5883;BME280;2967;51.488;6.618;2023-11-19T16:51:37;100585.19;;;13.45;100.00
5883;BME280;2967;51.488;6.618;2023-11-19T17:03:09;100605.69;;;13.76;100.00
5883;BME280;2967;51.488;6.618;2023-11-19T17:08:30;100605.47;;;13.57;100.00
5883;BME280;2967;51.488;6.618;2023-11-19T17:13:39;100601.00;;;13.46;100.00
5883;BME280;2967;51.488;6.618;2023-11-19T17:18:43;100563.47;;;13.29;100.00
5883;BME280;2967;51.488;6.618;2023-11-19T17:23:46;100468.81;;;12.84;100.00
5883;BME280;2967;51.488;6.618;2023-11-19T17:28:49;100594.81;;;13.57;100.00
5883;BME280;2967;51.488;6.618;2023-11-19T17:33:53;100580.72;;;13.56;100.00
5883;BME280;2967;51.488;6.618;2023-11-19T17:38:56;100284.44;;;11.69;100.00
5883;BME280;2967;51.488;6.618;2023-11-19T17:43:59;100543.44;;;13.14;100.00
5883;BME280;2967;51.488;6.618;2023-11-19T17:49:03;100589.91;;;13.63;100.00
5883;BME280;2967;51.488;6.618;2023-11-19T17:54:12;100536.88;;;13.51;100.00
5883;BME280;2967;51.488;6.618;2023-11-19T17:59:15;100593.81;;;13.91;100.00
5883;BME280;2967;51.488;6.618;2023-11-19T18:04:20;100582.25;;;13.81;100.00
5883;BME280;2967;51.488;6.618;2023-11-19T18:14:38;100567.22;;;13.91;100.00
5883;BME280;2967;51.488;6.618;2023-11-19T18:19:58;100572.38;;;13.61;100.00
5883;BME280;2967;51.488;6.618;2023-11-19T18:25:01;100558.47;;;13.57;100.00
5883;BME280;2967;51.488;6.618;2023-11-19T18:30:06;100573.84;;;12.99;100.00
5883;BME280;2967;51.488;6.618;2023-11-19T18:35:13;100572.75;;;13.13;100.00
5883;BME280;2967;51.488;6.618;2023-11-19T18:40:18;100563.59;;;13.27;100.00
5883;BME280;2967;51.488;6.618;2023-11-19T18:45:23;100575.28;;;13.14;100.00
5883;BME280;2967;51.488;6.618;2023-11-19T18:50:27;100457.75;;;12.68;100.00
5883;BME280;2967;51.488;6.618;2023-11-19T18:55:30;100561.31;;;13.12;100.00
5883;BME280;2967;51.488;6.618;2023-11-19T19:00:34;100532.56;;;13.28;100.00
5883;BME280;2967;51.488;6.618;2023-11-19T19:05:38;100554.53;;;13.30;100.00
5883;BME280;2967;51.488;6.618;2023-11-19T19:10:41;100562.28;;;13.11;100.00
5883;BME280;2967;51.488;6.618;2023-11-19T19:15:44;100541.97;;;13.43;100.00
5883;BME280;2967;51.488;6.618;2023-11-19T19:20:49;100537.34;;;13.45;100.00
5883;BME280;2967;51.488;6.618;2023-11-19T19:25:53;100527.84;;;13.20;100.00
5883;BME280;2967;51.488;6.618;2023-11-19T19:30:56;100536.69;;;13.21;100.00
5883;BME280;2967;51.488;6.618;2023-11-19T19:36:00;100546.22;;;13.34;100.00
5883;BME280;2967;51.488;6.618;2023-11-19T19:41:04;100512.75;;;12.88;100.00
5883;BME280;2967;51.488;6.618;2023-11-19T19:46:07;100542.31;;;12.84;100.00
5883;BME280;2967;51.488;6.618;2023-11-19T19:51:11;100531.47;;;13.19;100.00
5883;BME280;2967;51.488;6.618;2023-11-19T19:56:15;100540.91;;;13.23;100.00
5883;BME280;2967;51.488;6.618;2023-11-19T20:01:18;100523.16;;;13.02;100.00
5883;BME280;2967;51.488;6.618;2023-11-19T20:06:22;100535.22;;;13.39;100.00
5883;BME280;2967;51.488;6.618;2023-11-19T20:11:26;100529.41;;;13.34;100.00
5883;BME280;2967;51.488;6.618;2023-11-19T20:16:33;100540.31;;;13.20;100.00
5883;BME280;2967;51.488;6.618;2023-11-19T20:21:37;100530.25;;;13.13;100.00
5883;BME280;2967;51.488;6.618;2023-11-19T20:26:40;100540.03;;;12.79;100.00
5883;BME280;2967;51.488;6.618;2023-11-19T20:31:43;100544.97;;;13.38;100.00
5883;BME280;2967;51.488;6.618;2023-11-19T20:36:47;100537.75;;;12.97;100.00
5883;BME280;2967;51.488;6.618;2023-11-19T20:41:50;100538.72;;;12.96;100.00
5883;BME280;2967;51.488;6.618;2023-11-19T20:46:52;100542.72;;;13.12;100.00
5883;BME280;2967;51.488;6.618;2023-11-19T20:51:58;100542.56;;;13.35;100.00
5883;BME280;2967;51.488;6.618;2023-11-19T20:57:01;100546.91;;;13.47;100.00
5883;BME280;2967;51.488;6.618;2023-11-19T21:02:04;100535.22;;;13.28;100.00
5883;BME280;2967;51.488;6.618;2023-11-19T21:07:08;100533.50;;;13.27;100.00
5883;BME280;2967;51.488;6.618;2023-11-19T21:12:11;100552.00;;;13.18;100.00
5883;BME280;2967;51.488;6.618;2023-11-19T21:17:14;100547.53;;;13.29;100.00
5883;BME280;2967;51.488;6.618;2023-11-19T21:22:21;100548.38;;;13.18;100.00
5883;BME280;2967;51.488;6.618;2023-11-19T21:27:24;100549.69;;;13.35;100.00
5883;BME280;2967;51.488;6.618;2023-11-19T21:32:28;100544.34;;;13.68;100.00
5883;BME280;2967;51.488;6.618;2023-11-19T21:37:32;100539.50;;;13.62;100.00
5883;BME280;2967;51.488;6.618;2023-11-19T21:42:35;100536.03;;;12.85;100.00
5883;BME280;2967;51.488;6.618;2023-11-19T21:47:38;100550.69;;;13.01;100.00
5883;BME280;2967;51.488;6.618;2023-11-19T21:52:42;100556.94;;;13.22;100.00
5883;BME280;2967;51.488;6.618;2023-11-19T21:57:45;100553.41;;;13.54;100.00
5883;BME280;2967;51.488;6.618;2023-11-19T22:02:48;100531.13;;;13.13;100.00
5883;BME280;2967;51.488;6.618;2023-11-19T22:07:56;100561.78;;;13.06;100.00
5883;BME280;2967;51.488;6.618;2023-11-19T22:13:18;100549.69;;;13.24;100.00
5883;BME280;2967;51.488;6.618;2023-11-19T22:18:21;100575.63;;;13.42;100.00
5883;BME280;2967;51.488;6.618;2023-11-19T22:23:25;100559.59;;;13.22;100.00
5883;BME280;2967;51.488;6.618;2023-11-19T22:28:28;100552.00;;;13.28;100.00
5883;BME280;2967;51.488;6.618;2023-11-19T22:33:30;100558.16;;;13.29;100.00
5883;BME280;2967;51.488;6.618;2023-11-19T22:38:34;100570.09;;;13.13;100.00
5883;BME280;2967;51.488;6.618;2023-11-19T22:43:37;100568.28;;;13.13;100.00
5883;BME280;2967;51.488;6.618;2023-11-19T22:48:40;100567.31;;;13.25;100.00
5883;BME280;2967;51.488;6.618;2023-11-19T22:53:45;100573.25;;;13.07;100.00
5883;BME280;2967;51.488;6.618;2023-11-19T22:58:47;100573.16;;;13.08;100.00
5883;BME280;2967;51.488;6.618;2023-11-19T23:03:51;100561.19;;;13.14;100.00
5883;BME280;2967;51.488;6.618;2023-11-19T23:08:56;100582.53;;;13.12;100.00
5883;BME280;2967;51.488;6.618;2023-11-19T23:13:59;100557.03;;;12.88;100.00
5883;BME280;2967;51.488;6.618;2023-11-19T23:19:01;100591.13;;;13.16;100.00
5883;BME280;2967;51.488;6.618;2023-11-19T23:24:06;100584.72;;;13.40;100.00
5883;BME280;2967;51.488;6.618;2023-11-19T23:29:09;100589.44;;;13.25;100.00
5883;BME280;2967;51.488;6.618;2023-11-19T23:34:18;100583.50;;;13.11;100.00
5883;BME280;2967;51.488;6.618;2023-11-19T23:39:22;100585.66;;;13.17;100.00
5883;BME280;2967;51.488;6.618;2023-11-19T23:44:24;100590.25;;;13.26;100.00
5883;BME280;2967;51.488;6.618;2023-11-19T23:49:27;100576.25;;;13.24;100.00
5883;BME280;2967;51.488;6.618;2023-11-19T23:54:33;100585.81;;;13.26;100.00
5883;BME280;2967;51.488;6.618;2023-11-19T23:59:36;100586.03;;;13.13;100.00
